createdAt,value
2018-01-31T01:52:50.596Z,-1.43
2018-01-31T01:53:50.466Z,-1.53
2018-01-31T01:54:50.331Z,-1.69
2018-01-31T01:55:50.199Z,-1.74
2018-01-31T01:56:50.065Z,-1.62
2018-01-31T01:57:49.931Z,-1.75
2018-01-31T01:58:49.800Z,-1.74
2018-01-31T01:59:49.669Z,-1.63
2018-01-31T02:00:49.533Z,-1.63
2018-01-31T02:01:49.404Z,-1.63
2018-01-31T02:02:49.272Z,-1.67
2018-01-31T02:03:49.135Z,-1.59
2018-01-31T02:04:49.002Z,-1.66
2018-01-31T02:05:48.870Z,-1.56
2018-01-31T02:06:48.740Z,-1.46
2018-01-31T02:07:48.603Z,-1.49
2018-01-31T02:08:48.470Z,-1.53
2018-01-31T02:09:48.338Z,-1.46
2018-01-31T02:10:48.206Z,-1.25
2018-01-31T02:11:48.072Z,-1.28
2018-01-31T02:12:47.940Z,-1.18
2018-01-31T02:13:47.806Z,-1.23
2018-01-31T02:14:47.670Z,-1.31
2018-01-31T02:15:47.539Z,-1.31
2018-01-31T02:16:47.406Z,-1.43
2018-01-31T02:17:47.272Z,-1.48
2018-01-31T02:18:47.141Z,-1.49
2018-01-31T02:19:47.008Z,-1.46
2018-01-31T02:20:46.875Z,-1.56
2018-01-31T02:21:46.742Z,-1.49
2018-01-31T02:22:46.608Z,-1.57
2018-01-31T02:23:46.475Z,-1.66
2018-01-31T02:24:46.342Z,-1.59
2018-01-31T02:25:46.209Z,-1.66
2018-01-31T02:26:46.076Z,-1.67
2018-01-31T02:27:45.944Z,-1.66
2018-01-31T02:28:45.810Z,-1.75
2018-01-31T02:29:45.679Z,-1.72
2018-01-31T02:30:45.544Z,-1.75
2018-01-31T02:31:45.413Z,-1.85
2018-01-31T02:32:45.277Z,-1.85
2018-01-31T02:33:45.145Z,-1.95
2018-01-31T02:34:45.016Z,-1.96
2018-01-31T02:35:44.881Z,-1.93
2018-01-31T02:36:44.746Z,-1.92
2018-01-31T02:37:44.615Z,-1.96
2018-01-31T02:38:44.483Z,-1.92
2018-01-31T02:39:44.350Z,-1.92
2018-01-31T02:40:44.216Z,-1.95
2018-01-31T02:41:44.083Z,-1.98
2018-01-31T02:42:43.951Z,-2.03
2018-01-31T02:43:43.817Z,-2.02
2018-01-31T02:44:43.685Z,-2.02
2018-01-31T02:45:43.561Z,-1.99
2018-01-31T02:46:43.421Z,-1.99
2018-01-31T02:47:43.288Z,-2.05
2018-01-31T02:48:43.155Z,-2.17
2018-01-31T02:49:43.022Z,-2.08
2018-01-31T02:50:42.888Z,-2.05
2018-01-31T02:51:42.756Z,-2.08
2018-01-31T02:52:42.623Z,-2.05
2018-01-31T02:53:42.492Z,-2.05
2018-01-31T02:54:42.355Z,-2.06
2018-01-31T02:55:42.226Z,-2.10
2018-01-31T02:56:42.092Z,-2.06
2018-01-31T02:57:41.957Z,-2.05
2018-01-31T02:58:41.827Z,-2.02
2018-01-31T02:59:41.692Z,-2.06
2018-01-31T03:00:41.562Z,-2.08
2018-01-31T03:01:41.428Z,-2.06
2018-01-31T03:02:41.293Z,-2.02
2018-01-31T03:03:41.162Z,-1.96
2018-01-31T03:04:41.034Z,-2.05
2018-01-31T03:05:40.896Z,-2.11
2018-01-31T03:06:40.764Z,-2.02
2018-01-31T03:07:40.628Z,-2.05
2018-01-31T03:08:40.498Z,-2.10
2018-01-31T03:09:40.364Z,-2.08
2018-01-31T03:10:40.232Z,-2.08
2018-01-31T03:11:40.099Z,-2.08
2018-01-31T03:12:39.966Z,-2.06
2018-01-31T03:13:39.832Z,-2.06
2018-01-31T03:14:39.699Z,-2.14
2018-01-31T03:15:39.567Z,-2.16
2018-01-31T03:16:39.433Z,-2.16
2018-01-31T03:17:39.303Z,-2.24
2018-01-31T03:18:39.170Z,-2.23
2018-01-31T03:19:39.036Z,-2.20
2018-01-31T03:20:38.901Z,-2.32
2018-01-31T03:21:38.768Z,-2.20
2018-01-31T03:22:38.636Z,-2.29
2018-01-31T03:23:38.505Z,-2.18
2018-01-31T03:24:38.371Z,-2.26
2018-01-31T03:25:38.238Z,-2.29
2018-01-31T03:26:38.106Z,-2.24
2018-01-31T03:27:37.972Z,-2.18
2018-01-31T03:28:37.839Z,-2.26
2018-01-31T03:29:37.706Z,-2.23
2018-01-31T03:30:37.575Z,-2.23
2018-01-31T03:31:37.441Z,-2.21
2018-01-31T03:32:37.307Z,-2.11
2018-01-31T03:33:37.173Z,-2.14
2018-01-31T03:34:37.043Z,-2.14
2018-01-31T03:35:36.912Z,-2.10
2018-01-31T03:36:36.778Z,-2.08
2018-01-31T03:37:36.643Z,-2.08
2018-01-31T03:38:36.511Z,-2.08
2018-01-31T03:39:36.377Z,-2.00
2018-01-31T03:40:36.245Z,-2.11
2018-01-31T03:41:36.112Z,-2.06
2018-01-31T03:42:35.978Z,-2.08
2018-01-31T03:43:35.846Z,-2.14
2018-01-31T03:44:35.712Z,-2.16
2018-01-31T03:45:35.583Z,-2.10
2018-01-31T03:46:35.452Z,-2.14
2018-01-31T03:47:35.315Z,-2.10
2018-01-31T03:48:35.184Z,-2.17
2018-01-31T03:49:35.049Z,-2.23
2018-01-31T03:50:34.913Z,-2.23
2018-01-31T03:51:34.782Z,-2.23
2018-01-31T03:52:34.649Z,-2.26
2018-01-31T03:53:34.516Z,-2.28
2018-01-31T03:54:34.385Z,-2.21
2018-01-31T03:55:34.252Z,-2.26
2018-01-31T03:56:34.117Z,-2.33
2018-01-31T03:57:33.988Z,-2.28
2018-01-31T03:58:33.851Z,-2.17
2018-01-31T03:59:33.719Z,-2.20
2018-01-31T04:00:33.585Z,-2.10
2018-01-31T04:01:33.454Z,-2.14
2018-01-31T04:02:33.322Z,-2.17
2018-01-31T04:03:33.185Z,-2.14
2018-01-31T04:04:33.054Z,-2.13
2018-01-31T04:05:32.921Z,-2.14
2018-01-31T04:06:32.789Z,-2.17
2018-01-31T04:07:32.661Z,-2.16
2018-01-31T04:08:32.525Z,-2.17
2018-01-31T04:09:32.390Z,-2.18
2018-01-31T04:10:32.255Z,-2.17
2018-01-31T04:11:32.120Z,-2.21
2018-01-31T04:12:31.989Z,-2.18
2018-01-31T04:13:31.856Z,-2.17
2018-01-31T04:14:31.725Z,-2.16
2018-01-31T04:15:31.589Z,-2.14
2018-01-31T04:16:31.456Z,-2.02
2018-01-31T04:17:31.323Z,-1.98
2018-01-31T04:18:31.190Z,-1.96
2018-01-31T04:19:31.058Z,-1.88
2018-01-31T04:20:30.924Z,-1.87
2018-01-31T04:21:30.790Z,-1.92
2018-01-31T04:22:30.657Z,-1.85
2018-01-31T04:23:30.524Z,-1.77
2018-01-31T04:24:30.392Z,-1.60
2018-01-31T04:25:30.259Z,-1.60
2018-01-31T04:26:30.123Z,-1.56
2018-01-31T04:27:29.994Z,-1.63
2018-01-31T04:28:29.857Z,-1.64
2018-01-31T04:29:29.724Z,-1.62
2018-01-31T04:30:29.591Z,-1.63
2018-01-31T04:31:29.458Z,-1.72
2018-01-31T04:32:29.324Z,-1.67
2018-01-31T04:33:29.191Z,-1.78
2018-01-31T04:34:29.059Z,-1.72
2018-01-31T04:35:28.926Z,-1.72
2018-01-31T04:36:28.792Z,-1.74
2018-01-31T04:37:28.672Z,-1.77
2018-01-31T04:38:28.524Z,-1.67
2018-01-31T04:39:28.392Z,-1.69
2018-01-31T04:40:28.259Z,-1.74
2018-01-31T04:41:28.127Z,-1.64
2018-01-31T04:42:27.994Z,-1.66
2018-01-31T04:43:27.860Z,-1.66
2018-01-31T04:44:27.727Z,-1.67
2018-01-31T04:45:27.594Z,-1.60
2018-01-31T04:46:27.460Z,-1.64
2018-01-31T04:47:27.329Z,-1.51
2018-01-31T04:48:27.196Z,-1.53
2018-01-31T04:49:27.060Z,-1.66
2018-01-31T04:50:26.928Z,-1.57
2018-01-31T04:51:26.795Z,-1.43
2018-01-31T04:52:26.661Z,-1.56
2018-01-31T04:53:26.529Z,-1.49
2018-01-31T04:54:26.400Z,-1.54
2018-01-31T04:55:26.262Z,-1.54
2018-01-31T04:56:26.147Z,-1.57
2018-01-31T04:57:25.995Z,-1.69
2018-01-31T04:58:25.864Z,-1.70
2018-01-31T04:59:25.753Z,-1.70
2018-01-31T05:00:25.594Z,-1.78
2018-01-31T05:01:25.462Z,-1.70
2018-01-31T05:02:25.330Z,-1.75
2018-01-31T05:03:25.195Z,-1.69
2018-01-31T05:04:25.096Z,-1.85
2018-01-31T05:05:24.928Z,-1.85
2018-01-31T05:06:24.795Z,-1.99
2018-01-31T05:07:24.661Z,-1.85
2018-01-31T05:08:24.549Z,-1.87
2018-01-31T05:09:24.395Z,-1.88
2018-01-31T05:10:24.264Z,-1.87
2018-01-31T05:11:24.130Z,-2.10
2018-01-31T05:12:23.997Z,-2.10
2018-01-31T05:13:23.863Z,-2.08
2018-01-31T05:14:23.731Z,-2.21
2018-01-31T05:15:23.601Z,-2.26
2018-01-31T05:16:23.467Z,-2.38
2018-01-31T05:17:23.330Z,-2.28
2018-01-31T05:18:23.196Z,-2.24
2018-01-31T05:19:23.065Z,-2.20
2018-01-31T05:20:22.929Z,-2.13
2018-01-31T05:21:22.797Z,-2.05
2018-01-31T05:22:22.666Z,-2.05
2018-01-31T05:23:22.531Z,-2.05
2018-01-31T05:24:22.397Z,-2.03
2018-01-31T05:25:22.263Z,-2.11
2018-01-31T05:26:22.129Z,-2.16
2018-01-31T05:27:21.999Z,-2.18
2018-01-31T05:28:21.859Z,-2.16
2018-01-31T05:29:21.728Z,-2.10
2018-01-31T05:30:21.594Z,-2.08
2018-01-31T05:31:21.475Z,-2.11
2018-01-31T05:32:21.369Z,-2.02
2018-01-31T05:33:21.222Z,-1.93
2018-01-31T05:34:21.062Z,-1.85
2018-01-31T05:35:20.930Z,-1.85
2018-01-31T05:36:20.795Z,-1.87
2018-01-31T05:37:20.663Z,-1.74
2018-01-31T05:38:20.528Z,-1.82
2018-01-31T05:39:20.395Z,-1.80
2018-01-31T05:40:20.261Z,-1.84
2018-01-31T05:41:20.127Z,-1.95
2018-01-31T05:42:19.995Z,-2.02
2018-01-31T05:43:19.864Z,-2.03
2018-01-31T05:44:19.731Z,-2.03
2018-01-31T05:45:19.687Z,-2.02
2018-01-31T05:46:19.469Z,-2.03
2018-01-31T05:47:19.450Z,-2.00
2018-01-31T05:48:19.195Z,-2.08
2018-01-31T05:49:19.061Z,-2.10
2018-01-31T05:50:18.927Z,-2.23
2018-01-31T05:51:18.796Z,-2.16
2018-01-31T05:52:18.665Z,-2.11
2018-01-31T05:53:18.539Z,-2.03
2018-01-31T05:54:18.424Z,-1.98
2018-01-31T05:55:18.265Z,-2.05
2018-01-31T05:56:18.156Z,-2.06
2018-01-31T05:57:18.002Z,-2.11
2018-01-31T05:58:17.862Z,-2.23
2018-01-31T05:59:17.768Z,-2.16
2018-01-31T06:00:17.600Z,-2.17
2018-01-31T06:01:17.465Z,-2.05
2018-01-31T06:02:17.339Z,-2.11
2018-01-31T06:03:17.197Z,-2.13
2018-01-31T06:04:17.061Z,-2.16
2018-01-31T06:05:16.951Z,-2.11
2018-01-31T06:06:16.794Z,-2.10
2018-01-31T06:07:16.662Z,-2.11
2018-01-31T06:08:16.526Z,-2.16
2018-01-31T06:09:16.394Z,-2.23
2018-01-31T06:10:16.257Z,-2.23
2018-01-31T06:11:16.130Z,-2.20
2018-01-31T06:12:15.998Z,-2.18
2018-01-31T06:13:15.861Z,-2.26
2018-01-31T06:14:15.726Z,-2.28
2018-01-31T06:15:15.591Z,-2.18
2018-01-31T06:16:15.460Z,-2.23
2018-01-31T06:17:15.326Z,-2.13
2018-01-31T06:18:15.194Z,-2.18
2018-01-31T06:19:15.061Z,-2.11
2018-01-31T06:20:14.927Z,-1.95
2018-01-31T06:21:14.794Z,-1.77
2018-01-31T06:22:14.662Z,-1.75
2018-01-31T06:23:14.529Z,-1.77
2018-01-31T06:24:14.394Z,-1.88
2018-01-31T06:25:14.260Z,-1.87
2018-01-31T06:26:14.127Z,-1.96
2018-01-31T06:27:13.997Z,-2.03
2018-01-31T06:28:13.858Z,-1.92
2018-01-31T06:29:13.723Z,-1.99
2018-01-31T06:30:13.592Z,-1.95
2018-01-31T06:31:13.458Z,-2.02
2018-01-31T06:32:13.326Z,-1.99
2018-01-31T06:33:13.192Z,-1.99
2018-01-31T06:34:13.058Z,-2.05
2018-01-31T06:35:12.924Z,-2.03
2018-01-31T06:36:12.791Z,-1.99
2018-01-31T06:37:12.656Z,-1.98
2018-01-31T06:38:12.526Z,-1.98
2018-01-31T06:39:12.391Z,-2.05
2018-01-31T06:40:12.261Z,-2.05
2018-01-31T06:41:12.123Z,-1.99
2018-01-31T06:42:11.989Z,-2.03
2018-01-31T06:43:11.857Z,-2.08
2018-01-31T06:44:11.724Z,-1.99
2018-01-31T06:45:11.592Z,-1.96
2018-01-31T06:46:11.458Z,-2.00
2018-01-31T06:47:11.351Z,-2.02
2018-01-31T06:48:11.190Z,-1.93
2018-01-31T06:49:11.057Z,-1.87
2018-01-31T06:50:10.924Z,-1.85
2018-01-31T06:51:10.799Z,-1.90
2018-01-31T06:52:10.658Z,-1.99
2018-01-31T06:53:10.523Z,-2.03
2018-01-31T06:54:10.392Z,-2.05
2018-01-31T06:55:10.259Z,-2.05
2018-01-31T06:56:10.125Z,-2.11
2018-01-31T06:57:09.994Z,-2.02
2018-01-31T06:58:09.861Z,-2.05
2018-01-31T06:59:09.729Z,-2.08
2018-01-31T07:00:09.639Z,-2.11
2018-01-31T07:01:09.460Z,-2.11
2018-01-31T07:02:09.328Z,-2.18
2018-01-31T07:03:09.195Z,-2.14
2018-01-31T07:04:09.062Z,-2.11
2018-01-31T07:05:08.929Z,-2.17
2018-01-31T07:06:08.801Z,-2.14
2018-01-31T07:07:08.712Z,-2.14
2018-01-31T07:08:08.530Z,-2.06
2018-01-31T07:09:08.398Z,-2.03
2018-01-31T07:10:08.264Z,-2.03
2018-01-31T07:11:08.136Z,-2.05
2018-01-31T07:12:08.012Z,-2.02
2018-01-31T07:13:07.878Z,-2.03
2018-01-31T07:14:07.735Z,-1.92
2018-01-31T07:15:07.598Z,-1.92
2018-01-31T07:16:07.465Z,-1.90
2018-01-31T07:17:07.330Z,-1.84
2018-01-31T07:18:07.197Z,-1.87
2018-01-31T07:19:07.067Z,-1.82
2018-01-31T07:20:06.932Z,-1.70
2018-01-31T07:21:06.798Z,-1.60
2018-01-31T07:22:06.667Z,-1.63
2018-01-31T07:23:06.535Z,-1.64
2018-01-31T07:24:06.399Z,-1.67
2018-01-31T07:25:06.266Z,-1.49
2018-01-31T07:26:06.135Z,-1.48
2018-01-31T07:27:05.998Z,-1.60
2018-01-31T07:28:05.867Z,-1.57
2018-01-31T07:29:05.736Z,-1.53
2018-01-31T07:30:05.602Z,-1.67
2018-01-31T07:31:05.469Z,-1.59
2018-01-31T07:32:05.337Z,-1.63
2018-01-31T07:33:05.202Z,-1.59
2018-01-31T07:34:05.067Z,-1.54
2018-01-31T07:35:04.936Z,-1.67
2018-01-31T07:36:04.803Z,-1.63
2018-01-31T07:37:04.671Z,-1.62
2018-01-31T07:38:04.539Z,-1.56
2018-01-31T07:39:04.446Z,-1.63
2018-01-31T07:40:04.278Z,-1.54
2018-01-31T07:41:04.142Z,-1.49
2018-01-31T07:42:04.007Z,-1.42
2018-01-31T07:43:03.875Z,-1.42
2018-01-31T07:44:03.740Z,-1.35
2018-01-31T07:45:03.608Z,-1.20
2018-01-31T07:46:03.477Z,-1.27
2018-01-31T07:47:03.340Z,-1.28
2018-01-31T07:48:03.209Z,-1.13
2018-01-31T07:49:03.076Z,-1.18
2018-01-31T07:50:02.944Z,-1.20
2018-01-31T07:51:02.811Z,-1.18
2018-01-31T07:52:02.678Z,-1.18
2018-01-31T07:53:02.546Z,-1.21
2018-01-31T07:54:02.412Z,-1.06
2018-01-31T07:55:02.280Z,-1.10
2018-01-31T07:56:02.147Z,-1.06
2018-01-31T07:57:02.014Z,-0.97
2018-01-31T07:58:01.883Z,-1.05
2018-01-31T07:59:01.750Z,-0.97
2018-01-31T08:00:01.616Z,-0.91
2018-01-31T08:01:01.481Z,-1.05
2018-01-31T08:02:01.352Z,-1.02
2018-01-31T08:03:01.221Z,-1.02
2018-01-31T08:04:01.087Z,-1.20
2018-01-31T08:05:00.953Z,-1.18
2018-01-31T08:06:00.821Z,-1.28
2018-01-31T08:07:00.689Z,-1.25
2018-01-31T08:08:00.559Z,-1.23
2018-01-31T08:09:00.423Z,-1.15
2018-01-31T08:10:00.298Z,-1.18
2018-01-31T08:11:00.162Z,-1.17
2018-01-31T08:12:00.029Z,-1.03
2018-01-31T08:12:59.897Z,-0.83
2018-01-31T08:13:59.760Z,-0.83
2018-01-31T08:14:59.631Z,-0.75
2018-01-31T08:15:59.498Z,-0.77
2018-01-31T08:16:59.366Z,-0.66
2018-01-31T08:17:59.243Z,-0.59
2018-01-31T08:18:59.103Z,-0.66
2018-01-31T08:19:58.969Z,-0.55
2018-01-31T08:20:58.836Z,-0.47
2018-01-31T08:21:58.704Z,-0.47
2018-01-31T08:22:58.576Z,-0.51
2018-01-31T08:23:58.439Z,-0.51
2018-01-31T08:24:58.308Z,-0.47
2018-01-31T08:25:58.185Z,-0.29
2018-01-31T08:26:58.042Z,-0.27
2018-01-31T08:27:57.915Z,-0.36
2018-01-31T08:28:57.777Z,-0.23
2018-01-31T08:29:57.647Z,-0.22
2018-01-31T08:30:57.514Z,-0.39
2018-01-31T08:31:57.383Z,-0.33
2018-01-31T08:32:57.256Z,-0.34
2018-01-31T08:33:57.123Z,-0.47
2018-01-31T08:34:56.988Z,-0.59
2018-01-31T08:35:56.855Z,-0.75
2018-01-31T08:36:56.724Z,-0.89
2018-01-31T08:37:56.589Z,-0.97
2018-01-31T08:38:56.471Z,-1.13
2018-01-31T08:39:56.324Z,-1.06
2018-01-31T08:40:56.195Z,-1.15
2018-01-31T08:41:56.063Z,-1.23
2018-01-31T08:42:55.930Z,-1.21
2018-01-31T08:43:55.798Z,-1.18
2018-01-31T08:44:55.676Z,-1.25
2018-01-31T08:45:55.534Z,-1.12
2018-01-31T08:46:55.401Z,-1.18
2018-01-31T08:47:55.271Z,-1.05
2018-01-31T08:48:55.136Z,-1.06
2018-01-31T08:49:55.011Z,-1.05
2018-01-31T08:50:54.877Z,-1.10
2018-01-31T08:51:54.739Z,-1.10
2018-01-31T08:52:54.610Z,-1.06
2018-01-31T08:53:54.478Z,-1.02
2018-01-31T08:54:54.344Z,-0.92
2018-01-31T08:55:54.213Z,-0.75
2018-01-31T08:56:54.082Z,-0.66
2018-01-31T08:57:53.946Z,-0.51
2018-01-31T08:58:53.816Z,-0.13
2018-01-31T08:59:53.686Z,0.09
2018-01-31T09:00:53.552Z,0.39
2018-01-31T09:01:53.421Z,0.58
2018-01-31T09:02:53.289Z,0.51
2018-01-31T09:03:53.154Z,0.76
2018-01-31T09:04:53.024Z,1.06
2018-01-31T09:05:52.891Z,1.15
2018-01-31T09:06:52.836Z,1.21
2018-01-31T09:07:52.626Z,1.37
2018-01-31T09:08:52.498Z,1.62
2018-01-31T09:09:52.366Z,1.93
2018-01-31T09:10:52.235Z,2.31
2018-01-31T09:11:52.101Z,2.73
2018-01-31T09:12:51.970Z,3.24
2018-01-31T09:13:51.841Z,3.61
2018-01-31T09:14:51.708Z,3.88
2018-01-31T09:15:51.582Z,4.07
2018-01-31T09:16:51.452Z,4.12
2018-01-31T09:17:51.321Z,4.14
2018-01-31T09:18:51.190Z,4.50
2018-01-31T09:19:51.065Z,4.83
2018-01-31T09:20:50.931Z,5.27
2018-01-31T09:21:50.804Z,5.52
2018-01-31T09:22:50.676Z,5.55
2018-01-31T09:23:50.545Z,5.74
2018-01-31T09:24:50.423Z,5.67
2018-01-31T09:25:50.290Z,5.64
2018-01-31T09:26:50.160Z,5.63
2018-01-31T09:27:50.036Z,5.75
2018-01-31T09:28:49.904Z,5.95
2018-01-31T09:29:49.806Z,5.95
2018-01-31T09:30:49.650Z,5.92
2018-01-31T09:31:49.523Z,6.30
2018-01-31T09:32:49.394Z,6.65
2018-01-31T09:33:49.278Z,6.97
2018-01-31T09:34:49.141Z,7.26
2018-01-31T09:35:49.016Z,7.17
2018-01-31T09:36:48.888Z,6.87
2018-01-31T09:37:48.762Z,6.73
2018-01-31T09:38:48.641Z,7.02
2018-01-31T09:39:48.508Z,7.17
2018-01-31T09:40:48.383Z,7.17
2018-01-31T09:41:48.259Z,7.26
2018-01-31T09:42:48.134Z,7.16
2018-01-31T09:43:48.012Z,7.04
2018-01-31T09:44:47.877Z,6.90
2018-01-31T09:45:47.755Z,6.91
2018-01-31T09:46:47.630Z,6.87
2018-01-31T09:47:47.501Z,7.16
2018-01-31T09:48:47.375Z,7.13
2018-01-31T09:49:47.250Z,7.13
2018-01-31T09:50:47.127Z,7.26
2018-01-31T09:51:46.999Z,7.47
2018-01-31T09:52:46.872Z,7.56
2018-01-31T09:53:46.747Z,7.45
2018-01-31T09:54:46.620Z,7.47
2018-01-31T09:55:46.495Z,7.32
2018-01-31T09:56:46.373Z,7.05
2018-01-31T09:57:46.243Z,6.94
2018-01-31T09:58:46.118Z,6.90
2018-01-31T09:59:45.991Z,6.90
2018-01-31T10:00:45.864Z,6.86
2018-01-31T10:01:45.738Z,6.97
2018-01-31T10:02:45.613Z,6.97
2018-01-31T10:03:45.488Z,6.94
2018-01-31T10:04:45.362Z,6.76
2018-01-31T10:05:45.238Z,6.72
2018-01-31T10:06:45.110Z,6.76
2018-01-31T10:07:44.981Z,6.63
2018-01-31T10:08:44.855Z,6.61
2018-01-31T10:09:44.731Z,6.62
2018-01-31T10:10:44.607Z,6.79
2018-01-31T10:11:44.477Z,6.86
2018-01-31T10:12:44.352Z,6.97
2018-01-31T10:13:44.229Z,7.15
2018-01-31T10:14:44.099Z,7.19
2018-01-31T10:15:43.974Z,7.27
2018-01-31T10:16:43.847Z,7.47
2018-01-31T10:17:43.722Z,7.84
2018-01-31T10:18:43.596Z,7.92
2018-01-31T10:19:43.471Z,7.74
2018-01-31T10:20:43.343Z,7.82
2018-01-31T10:21:43.220Z,7.75
2018-01-31T10:22:43.095Z,7.62
2018-01-31T10:23:42.969Z,7.52
2018-01-31T10:24:42.846Z,7.34
2018-01-31T10:25:42.720Z,6.99
2018-01-31T10:26:42.596Z,7.04
2018-01-31T10:27:42.470Z,6.98
2018-01-31T10:28:42.342Z,7.16
2018-01-31T10:29:42.220Z,7.52
2018-01-31T10:30:42.098Z,7.84
2018-01-31T10:31:41.970Z,7.99
2018-01-31T10:32:41.846Z,8.30
2018-01-31T10:33:41.720Z,8.39
2018-01-31T10:34:41.596Z,8.30
2018-01-31T10:35:41.474Z,8.42
2018-01-31T10:36:41.348Z,8.42
2018-01-31T10:37:41.223Z,8.73
2018-01-31T10:38:41.104Z,8.83
2018-01-31T10:39:40.977Z,8.73
2018-01-31T10:40:40.850Z,8.96
2018-01-31T10:41:40.727Z,8.76
2018-01-31T10:42:40.604Z,8.71
2018-01-31T10:43:40.483Z,8.60
2018-01-31T10:44:40.358Z,8.88
2018-01-31T10:45:40.232Z,9.01
2018-01-31T10:46:40.107Z,9.30
2018-01-31T10:47:39.986Z,9.52
2018-01-31T10:48:39.860Z,9.43
2018-01-31T10:49:39.739Z,9.27
2018-01-31T10:50:39.613Z,9.45
2018-01-31T10:51:39.491Z,9.42
2018-01-31T10:52:39.368Z,9.31
2018-01-31T10:57:38.752Z,10.19
2018-01-31T10:58:38.628Z,10.65
2018-01-31T10:59:38.505Z,10.63
2018-01-31T11:00:38.382Z,10.52
2018-01-31T11:01:38.260Z,10.42
2018-01-31T11:02:38.136Z,10.63
2018-01-31T11:03:38.015Z,10.91
2018-01-31T11:04:37.891Z,11.25
2018-01-31T11:05:37.769Z,11.39
2018-01-31T11:06:37.654Z,11.34
2018-01-31T11:07:37.524Z,11.43
2018-01-31T11:08:37.403Z,11.19
2018-01-31T11:09:37.279Z,10.88
2018-01-31T11:10:37.159Z,10.96
2018-01-31T11:11:37.037Z,11.03
2018-01-31T11:12:36.913Z,10.81
2018-01-31T11:13:36.793Z,9.71
2018-01-31T11:14:36.673Z,9.68
2018-01-31T11:15:36.552Z,9.58
2018-01-31T11:16:36.436Z,9.02
2018-01-31T11:17:36.308Z,9.32
2018-01-31T11:18:36.188Z,9.53
2018-01-31T11:19:36.064Z,9.85
2018-01-31T11:20:35.943Z,9.57
2018-01-31T11:21:35.823Z,9.45
2018-01-31T11:22:35.702Z,9.45
2018-01-31T11:23:35.578Z,9.52
2018-01-31T11:24:35.457Z,9.64
2018-01-31T11:25:35.337Z,9.79
2018-01-31T11:26:35.217Z,9.61
2018-01-31T11:27:35.093Z,9.63
2018-01-31T11:28:34.971Z,9.79
2018-01-31T11:29:34.849Z,10.10
2018-01-31T11:30:34.725Z,10.46
2018-01-31T11:31:34.601Z,11.06
2018-01-31T11:32:34.483Z,10.92
2018-01-31T11:33:34.359Z,10.77
2018-01-31T11:34:34.236Z,10.58
2018-01-31T11:35:34.118Z,10.58
2018-01-31T11:36:33.990Z,10.60
2018-01-31T11:37:33.872Z,10.62
2018-01-31T11:38:33.748Z,10.78
2018-01-31T11:39:33.623Z,10.66
2018-01-31T11:40:33.502Z,10.43
2018-01-31T11:41:33.383Z,10.26
2018-01-31T11:42:33.261Z,10.18
2018-01-31T11:43:33.135Z,10.17
2018-01-31T11:44:33.013Z,10.06
2018-01-31T11:45:32.890Z,10.06
2018-01-31T11:46:32.769Z,10.30
2018-01-31T11:47:32.646Z,10.39
2018-01-31T11:48:32.523Z,10.43
2018-01-31T11:49:32.402Z,10.21
2018-01-31T11:50:32.281Z,10.28
2018-01-31T11:51:32.160Z,10.17
2018-01-31T11:52:32.035Z,10.10
2018-01-31T11:53:31.914Z,10.46
2018-01-31T11:54:31.791Z,10.58
2018-01-31T11:55:31.670Z,10.55
2018-01-31T11:56:31.548Z,10.37
2018-01-31T11:57:31.425Z,10.22
2018-01-31T11:58:31.327Z,10.55
2018-01-31T11:59:31.179Z,10.65
2018-01-31T12:00:31.058Z,10.70
2018-01-31T12:01:30.935Z,10.12
2018-01-31T12:02:30.813Z,9.63
2018-01-31T12:03:30.691Z,9.49
2018-01-31T12:04:30.568Z,9.75
2018-01-31T12:05:30.446Z,9.91
2018-01-31T12:06:30.325Z,10.07
2018-01-31T12:07:30.202Z,9.99
2018-01-31T12:08:30.080Z,10.03
2018-01-31T12:09:29.958Z,9.63
2018-01-31T12:10:29.836Z,9.83
2018-01-31T12:11:29.711Z,9.96
2018-01-31T12:12:29.593Z,10.28
2018-01-31T12:13:29.470Z,10.24
2018-01-31T12:14:29.348Z,9.93
2018-01-31T12:15:29.227Z,9.88
2018-01-31T12:16:29.104Z,9.89
2018-01-31T12:17:28.980Z,10.03
2018-01-31T12:18:28.860Z,10.17
2018-01-31T12:19:28.734Z,10.47
2018-01-31T12:20:28.612Z,10.25
2018-01-31T12:21:28.489Z,10.33
2018-01-31T12:22:28.370Z,10.04
2018-01-31T12:23:28.246Z,9.73
2018-01-31T12:24:28.126Z,9.63
2018-01-31T12:25:27.998Z,9.70
2018-01-31T12:26:28.116Z,9.81
2018-01-31T12:27:27.755Z,9.81
2018-01-31T12:28:27.631Z,9.78
2018-01-31T12:29:27.666Z,9.75
2018-01-31T12:30:27.516Z,9.70
2018-01-31T12:31:27.263Z,9.79
2018-01-31T12:32:27.139Z,9.66
2018-01-31T12:33:27.017Z,9.60
2018-01-31T12:34:26.894Z,9.61
2018-01-31T12:35:26.770Z,9.45
2018-01-31T12:36:26.653Z,9.42
2018-01-31T12:37:26.568Z,9.45
2018-01-31T12:38:26.401Z,9.43
2018-01-31T12:39:26.277Z,9.30
2018-01-31T12:40:26.156Z,9.38
2018-01-31T12:41:26.031Z,9.27
2018-01-31T12:42:25.910Z,9.27
2018-01-31T12:43:25.787Z,9.27
2018-01-31T12:44:25.664Z,9.56
2018-01-31T12:45:25.539Z,9.56
2018-01-31T12:46:25.416Z,9.93
2018-01-31T12:47:25.294Z,10.06
2018-01-31T12:48:25.169Z,9.91
2018-01-31T12:49:25.110Z,10.04
2018-01-31T12:50:24.922Z,10.18
2018-01-31T12:51:24.823Z,10.17
2018-01-31T12:52:24.676Z,10.19
2018-01-31T12:53:24.568Z,10.14
2018-01-31T12:54:24.427Z,10.17
2018-01-31T12:55:24.303Z,10.21
2018-01-31T12:56:24.179Z,10.42
2018-01-31T12:57:24.058Z,10.47
2018-01-31T12:58:23.934Z,10.58
2018-01-31T12:59:23.815Z,10.74
2018-01-31T13:00:23.686Z,11.20
2018-01-31T13:01:23.585Z,11.17
2018-01-31T13:02:23.450Z,11.13
2018-01-31T13:03:23.317Z,11.02
2018-01-31T13:04:23.195Z,11.16
2018-01-31T13:05:23.071Z,11.14
2018-01-31T13:06:22.948Z,11.54
2018-01-31T13:07:22.825Z,11.80
2018-01-31T13:08:22.707Z,12.11
2018-01-31T13:09:22.580Z,12.31
2018-01-31T13:10:22.586Z,12.34
2018-01-31T13:11:22.332Z,12.67
2018-01-31T13:12:22.211Z,12.71
2018-01-31T13:13:22.103Z,12.71
2018-01-31T13:14:21.967Z,13.02
2018-01-31T13:15:21.865Z,12.51
2018-01-31T13:16:21.730Z,12.01
2018-01-31T13:17:21.601Z,11.68
2018-01-31T13:18:21.482Z,11.25
2018-01-31T13:19:21.355Z,10.86
2018-01-31T13:20:21.316Z,10.66
2018-01-31T13:21:21.118Z,10.80
2018-01-31T13:22:20.998Z,11.11
2018-01-31T13:23:21.008Z,11.49
2018-01-31T13:24:20.747Z,11.35
2018-01-31T13:25:20.627Z,11.14
2018-01-31T13:26:20.501Z,11.02
2018-01-31T13:27:20.381Z,10.92
2018-01-31T13:28:20.259Z,11.10
2018-01-31T13:29:20.257Z,11.02
2018-01-31T13:30:20.019Z,11.06
2018-01-31T13:31:19.895Z,11.07
2018-01-31T13:32:19.782Z,11.53
2018-01-31T13:33:19.748Z,12.04
2018-01-31T13:34:19.809Z,11.80
2018-01-31T13:35:19.403Z,11.96
2018-01-31T13:36:19.282Z,12.12
2018-01-31T13:37:19.161Z,12.11
2018-01-31T13:38:19.039Z,11.80
2018-01-31T13:39:18.921Z,12.11
2018-01-31T13:40:18.797Z,12.16
2018-01-31T13:41:18.678Z,12.09
2018-01-31T13:42:18.555Z,11.82
2018-01-31T13:43:18.431Z,11.70
2018-01-31T13:44:18.308Z,11.78
2018-01-31T13:45:18.211Z,11.67
2018-01-31T13:46:18.068Z,11.82
2018-01-31T13:47:17.947Z,11.90
2018-01-31T13:48:17.975Z,11.78
2018-01-31T13:49:17.703Z,12.02
2018-01-31T13:50:17.654Z,12.08
2018-01-31T13:51:17.459Z,12.12
2018-01-31T13:52:17.337Z,12.08
2018-01-31T13:53:17.216Z,11.89
2018-01-31T13:54:17.093Z,11.83
2018-01-31T13:55:16.972Z,11.82
2018-01-31T13:56:16.849Z,12.11
2018-01-31T13:57:16.760Z,12.26
2018-01-31T13:58:16.608Z,12.19
2018-01-31T13:59:16.487Z,11.85
2018-01-31T14:00:16.370Z,11.53
2018-01-31T14:01:16.387Z,11.47
2018-01-31T14:02:16.122Z,11.43
2018-01-31T14:03:16.006Z,11.80
2018-01-31T14:04:15.879Z,11.97
2018-01-31T14:05:15.760Z,11.72
2018-01-31T14:06:15.637Z,11.29
2018-01-31T14:07:15.517Z,11.25
2018-01-31T14:08:15.449Z,11.47
2018-01-31T14:09:15.275Z,11.86
2018-01-31T14:10:15.154Z,11.57
2018-01-31T14:11:15.034Z,11.41
2018-01-31T14:12:14.911Z,11.56
2018-01-31T14:13:14.791Z,11.90
2018-01-31T14:14:14.668Z,11.44
2018-01-31T14:15:14.546Z,11.11
2018-01-31T14:16:14.433Z,11.03
2018-01-31T14:17:14.343Z,11.02
2018-01-31T14:18:14.183Z,11.17
2018-01-31T14:19:14.062Z,11.65
2018-01-31T14:20:13.953Z,11.65
2018-01-31T14:21:13.820Z,11.38
2018-01-31T14:22:13.700Z,11.13
2018-01-31T14:23:13.595Z,11.09
2018-01-31T14:24:13.457Z,11.34
2018-01-31T14:25:13.388Z,11.56
2018-01-31T14:26:13.236Z,11.78
2018-01-31T14:27:13.090Z,11.61
2018-01-31T14:28:12.971Z,11.27
2018-01-31T14:29:12.853Z,11.24
2018-01-31T14:30:12.732Z,11.52
2018-01-31T14:31:12.614Z,11.35
2018-01-31T14:32:12.492Z,10.96
2018-01-31T14:33:12.370Z,10.60
2018-01-31T14:34:12.249Z,10.89
2018-01-31T14:35:12.128Z,10.46
2018-01-31T14:36:12.008Z,9.73
2018-01-31T14:37:11.926Z,8.87
2018-01-31T14:38:11.768Z,8.44
2018-01-31T14:39:11.654Z,8.42
2018-01-31T14:40:11.528Z,8.20
2018-01-31T14:41:11.406Z,8.39
2018-01-31T14:42:11.283Z,8.53
2018-01-31T14:43:11.162Z,8.68
2018-01-31T14:44:11.229Z,8.68
2018-01-31T14:45:10.920Z,8.17
2018-01-31T14:46:10.798Z,7.90
2018-01-31T14:47:10.676Z,7.79
2018-01-31T14:48:10.567Z,7.47
2018-01-31T14:49:10.435Z,7.59
2018-01-31T14:50:10.311Z,7.26
2018-01-31T14:51:10.189Z,6.98
2018-01-31T14:52:10.085Z,6.73
2018-01-31T14:53:09.943Z,6.61